createdAt,value
2019-06-26T00:00:59.148Z,1013.73
2019-06-26T00:01:59.136Z,1013.75
2019-06-26T00:02:59.086Z,1013.73
2019-06-26T00:03:59.064Z,1013.74
2019-06-26T00:04:59.101Z,1013.78
2019-06-26T00:05:59.047Z,1013.81
2019-06-26T00:06:59.062Z,1013.83
2019-06-26T00:07:59.026Z,1013.82
2019-06-26T00:08:59.016Z,1013.82
2019-06-26T00:09:59.018Z,1013.75
2019-06-26T00:10:58.988Z,1013.83
2019-06-26T00:11:58.980Z,1013.84
2019-06-26T00:12:58.970Z,1013.84
2019-06-26T00:13:58.975Z,1013.82
2019-06-26T00:14:58.971Z,1013.81
2019-06-26T00:15:58.932Z,1013.84
2019-06-26T00:16:58.930Z,1013.87
2019-06-26T00:17:58.914Z,1013.81
2019-06-26T00:18:58.900Z,1013.88
2019-06-26T00:19:58.904Z,1013.86
2019-06-26T00:20:58.879Z,1013.83
2019-06-26T00:21:58.886Z,1013.86
2019-06-26T00:22:58.852Z,1013.88
2019-06-26T00:23:58.845Z,1013.91
2019-06-26T00:24:58.859Z,1013.89
2019-06-26T00:25:58.845Z,1013.91
2019-06-26T00:26:58.814Z,1013.92
2019-06-26T00:27:58.806Z,1013.95
2019-06-26T00:28:58.800Z,1013.92
2019-06-26T00:29:58.778Z,1013.96
2019-06-26T00:30:58.776Z,1013.97
2019-06-26T00:31:58.812Z,1013.97
2019-06-26T00:32:58.744Z,1013.99
2019-06-26T00:33:58.752Z,1013.95
2019-06-26T00:34:58.728Z,1013.95
2019-06-26T00:35:58.713Z,1014.01
2019-06-26T00:36:58.717Z,1014.00
2019-06-26T00:37:58.716Z,1014.04
2019-06-26T00:38:58.707Z,1014.00
2019-06-26T00:39:58.673Z,1014.02
2019-06-26T00:40:58.664Z,1014.05
2019-06-26T00:41:58.657Z,1014.07
2019-06-26T00:42:58.643Z,1014.06
2019-06-26T00:43:58.648Z,1014.06
2019-06-26T00:44:58.620Z,1014.09
2019-06-26T00:45:58.601Z,1014.08
2019-06-26T00:46:58.602Z,1014.11
2019-06-26T00:47:58.591Z,1014.05
2019-06-26T00:48:58.579Z,1014.07
2019-06-26T00:49:58.602Z,1014.08
2019-06-26T00:50:58.562Z,1014.05
2019-06-26T00:51:58.560Z,1014.05
2019-06-26T00:52:58.541Z,1014.05
2019-06-26T00:53:58.517Z,1014.06
2019-06-26T00:54:58.509Z,1014.07
2019-06-26T00:55:58.517Z,1014.05
2019-06-26T00:56:58.482Z,1014.07
2019-06-26T00:57:58.473Z,1014.08
2019-06-26T00:58:58.462Z,1014.09
2019-06-26T00:59:58.448Z,1014.11
2019-06-26T01:00:58.435Z,1014.14
2019-06-26T01:01:58.458Z,1014.15
2019-06-26T01:02:58.421Z,1014.17
2019-06-26T01:03:58.400Z,1014.14
2019-06-26T01:04:58.391Z,1014.17
2019-06-26T01:05:58.420Z,1014.17
2019-06-26T01:06:58.395Z,1014.19
2019-06-26T01:07:58.376Z,1014.18
2019-06-26T01:08:58.364Z,1014.24
2019-06-26T01:09:58.336Z,1014.20
2019-06-26T01:10:58.326Z,1014.18
2019-06-26T01:11:58.320Z,1014.23
2019-06-26T01:12:58.335Z,1014.23
2019-06-26T01:13:58.539Z,1014.25
2019-06-26T01:14:58.280Z,1014.25
2019-06-26T01:15:58.551Z,1014.25
2019-06-26T01:16:58.261Z,1014.26
2019-06-26T01:17:58.267Z,1014.28
2019-06-26T01:18:58.252Z,1014.29
2019-06-26T01:19:58.227Z,1014.27
2019-06-26T01:20:58.217Z,1014.28
2019-06-26T01:21:58.204Z,1014.28
2019-06-26T01:22:58.201Z,1014.25
2019-06-26T01:23:58.186Z,1014.29
2019-06-26T01:24:58.209Z,1014.25
2019-06-26T01:25:58.159Z,1014.30
2019-06-26T01:26:58.295Z,1014.33
2019-06-26T01:27:58.155Z,1014.33
2019-06-26T01:28:58.126Z,1014.30
2019-06-26T01:29:58.118Z,1014.31
2019-06-26T01:30:58.167Z,1014.32
2019-06-26T01:31:58.094Z,1014.33
2019-06-26T01:32:58.094Z,1014.31
2019-06-26T01:33:58.077Z,1014.32
2019-06-26T01:34:58.099Z,1014.34
2019-06-26T01:35:58.050Z,1014.32
2019-06-26T01:36:58.071Z,1014.33
2019-06-26T01:37:58.040Z,1014.35
2019-06-26T01:38:58.044Z,1014.34
2019-06-26T01:39:58.009Z,1014.37
2019-06-26T01:40:58.038Z,1014.30
2019-06-26T01:41:57.990Z,1014.33
2019-06-26T01:42:57.994Z,1014.34
2019-06-26T01:44:10.590Z,1014.36
2019-06-26T01:44:58.955Z,1014.36
2019-06-26T01:45:57.943Z,1014.34
2019-06-26T01:46:57.944Z,1014.39
2019-06-26T01:47:57.984Z,1014.38
2019-06-26T01:48:57.923Z,1014.43
2019-06-26T01:49:57.905Z,1014.38
2019-06-26T01:50:57.909Z,1014.42
2019-06-26T01:51:57.874Z,1014.42
2019-06-26T01:52:57.863Z,1014.44
2019-06-26T01:53:57.856Z,1014.43
2019-06-26T01:54:57.879Z,1014.46
2019-06-26T01:55:57.840Z,1014.47
2019-06-26T01:56:57.821Z,1014.42
2019-06-26T01:57:57.811Z,1014.43
2019-06-26T01:58:57.807Z,1014.40
2019-06-26T01:59:57.812Z,1014.44
2019-06-26T02:00:57.792Z,1014.44
2019-06-26T02:01:57.803Z,1014.47
2019-06-26T02:02:57.769Z,1014.43
2019-06-26T02:03:57.752Z,1014.42
2019-06-26T02:04:57.735Z,1014.45
2019-06-26T02:05:57.727Z,1014.44
2019-06-26T02:06:57.797Z,1014.44
2019-06-26T02:07:57.710Z,1014.43
2019-06-26T02:08:57.736Z,1014.43
2019-06-26T02:09:57.676Z,1014.41
2019-06-26T02:10:57.675Z,1014.44
2019-06-26T02:12:00.407Z,1014.42
2019-06-26T02:12:57.644Z,1014.47
2019-06-26T02:13:57.639Z,1014.45
2019-06-26T02:14:57.651Z,1014.47
2019-06-26T02:15:57.615Z,1014.47
2019-06-26T02:16:57.608Z,1014.49
2019-06-26T02:17:57.597Z,1014.52
2019-06-26T02:18:57.586Z,1014.49
2019-06-26T02:19:57.578Z,1014.50
2019-06-26T02:20:57.553Z,1014.47
2019-06-26T02:21:57.599Z,1014.51
2019-06-26T02:22:57.536Z,1014.52
2019-06-26T02:23:57.542Z,1014.52
2019-06-26T02:24:57.511Z,1014.52
2019-06-26T02:25:57.503Z,1014.52
2019-06-26T02:26:57.489Z,1014.51
2019-06-26T02:27:57.520Z,1014.54
2019-06-26T02:28:57.470Z,1014.59
2019-06-26T02:29:57.455Z,1014.61
2019-06-26T02:30:57.443Z,1014.60
2019-06-26T02:31:57.434Z,1014.59
2019-06-26T02:32:57.423Z,1014.65
2019-06-26T02:33:57.471Z,1014.63
2019-06-26T02:34:57.403Z,1014.62
2019-06-26T02:35:57.387Z,1014.65
2019-06-26T02:36:57.391Z,1014.65
2019-06-26T02:37:57.373Z,1014.67
2019-06-26T02:38:57.360Z,1014.67
2019-06-26T02:39:57.365Z,1014.67
2019-06-26T02:40:57.349Z,1014.68
2019-06-26T02:41:57.336Z,1014.69
2019-06-26T02:42:57.313Z,1014.67
2019-06-26T02:43:57.298Z,1014.69
2019-06-26T02:44:57.304Z,1014.67
2019-06-26T02:45:57.304Z,1014.68
2019-06-26T02:47:17.750Z,1014.66
2019-06-26T02:47:58.258Z,1014.68
2019-06-26T02:48:57.249Z,1014.70
2019-06-26T02:49:57.242Z,1014.70
2019-06-26T02:50:57.230Z,1014.73
2019-06-26T02:51:57.242Z,1014.75
2019-06-26T02:52:57.202Z,1014.74
2019-06-26T02:53:57.192Z,1014.76
2019-06-26T02:54:57.190Z,1014.76
2019-06-26T02:55:57.172Z,1014.74
2019-06-26T02:56:57.159Z,1014.74
2019-06-26T02:57:57.167Z,1014.76
2019-06-26T02:58:57.135Z,1014.76
2019-06-26T02:59:57.132Z,1014.74
2019-06-26T03:00:57.126Z,1014.77
2019-06-26T03:01:57.101Z,1014.74
2019-06-26T03:02:57.090Z,1014.76
2019-06-26T03:03:57.107Z,1014.79
2019-06-26T03:04:57.083Z,1014.79
2019-06-26T03:05:57.058Z,1014.77
2019-06-26T03:06:57.053Z,1014.81
2019-06-26T03:07:57.035Z,1014.78
2019-06-26T03:08:57.025Z,1014.80
2019-06-26T03:09:57.051Z,1014.80
2019-06-26T03:10:57.004Z,1014.79
2019-06-26T03:11:56.991Z,1014.83
2019-06-26T03:12:56.987Z,1014.86
2019-06-26T03:13:56.968Z,1014.88
2019-06-26T03:15:08.163Z,1014.86
2019-06-26T03:15:57.977Z,1014.86
2019-06-26T03:16:56.937Z,1014.88
2019-06-26T03:17:56.924Z,1014.90
2019-06-26T03:18:56.914Z,1014.95
2019-06-26T03:19:56.917Z,1015.01
2019-06-26T03:20:56.894Z,1015.01
2019-06-26T03:21:56.892Z,1015.02
2019-06-26T03:22:56.871Z,1015.02
2019-06-26T03:23:56.858Z,1015.01
2019-06-26T03:24:56.854Z,1015.03
2019-06-26T03:25:56.837Z,1015.05
2019-06-26T03:26:56.825Z,1015.07
2019-06-26T03:27:56.854Z,1015.07
2019-06-26T03:28:56.806Z,1015.08
2019-06-26T03:29:56.816Z,1015.08
2019-06-26T03:30:56.785Z,1015.10
2019-06-26T03:31:56.773Z,1015.11
2019-06-26T03:32:56.760Z,1015.12
2019-06-26T03:33:56.780Z,1015.14
2019-06-26T03:34:56.773Z,1015.19
2019-06-26T03:35:56.732Z,1015.16
2019-06-26T03:36:56.745Z,1015.17
2019-06-26T03:37:56.712Z,1015.16
2019-06-26T03:38:56.698Z,1015.18
2019-06-26T03:39:56.712Z,1015.18
2019-06-26T03:40:56.682Z,1015.17
2019-06-26T03:41:56.659Z,1015.20
2019-06-26T03:42:56.727Z,1015.19
2019-06-26T03:43:56.638Z,1015.19
2019-06-26T03:44:56.627Z,1015.22
2019-06-26T03:45:56.629Z,1015.24
2019-06-26T03:46:56.605Z,1015.26
2019-06-26T03:47:56.599Z,1015.27
2019-06-26T03:48:56.610Z,1015.32
2019-06-26T03:49:56.585Z,1015.31
2019-06-26T03:50:56.572Z,1015.31
2019-06-26T03:51:56.557Z,1015.30
2019-06-26T03:52:56.538Z,1015.32
2019-06-26T03:53:56.531Z,1015.34
2019-06-26T03:54:56.534Z,1015.34
2019-06-26T03:55:56.517Z,1015.33
2019-06-26T03:56:56.503Z,1015.33
2019-06-26T03:57:56.502Z,1015.35
2019-06-26T03:58:56.477Z,1015.31
2019-06-26T03:59:56.464Z,1015.32
2019-06-26T04:00:56.469Z,1015.33
2019-06-26T04:01:56.509Z,1015.35
2019-06-26T04:02:56.430Z,1015.34
2019-06-26T04:03:57.528Z,1015.36
2019-06-26T04:04:56.406Z,1015.34
2019-06-26T04:05:56.412Z,1015.39
2019-06-26T04:06:56.413Z,1015.36
2019-06-26T04:07:56.379Z,1015.35
2019-06-26T04:08:56.364Z,1015.40
2019-06-26T04:09:56.353Z,1015.38
2019-06-26T04:10:56.352Z,1015.38
2019-06-26T04:11:56.328Z,1015.41
2019-06-26T04:12:56.351Z,1015.42
2019-06-26T04:13:56.306Z,1015.41
2019-06-26T04:14:56.299Z,1015.41
2019-06-26T04:15:56.309Z,1015.44
2019-06-26T04:16:56.277Z,1015.44
2019-06-26T04:17:56.265Z,1015.45
2019-06-26T04:18:56.249Z,1015.48
2019-06-26T04:19:56.259Z,1015.52
2019-06-26T04:20:56.237Z,1015.52
2019-06-26T04:21:56.230Z,1015.53
2019-06-26T04:22:56.206Z,1015.58
2019-06-26T04:23:56.194Z,1015.65
2019-06-26T04:24:56.187Z,1015.62
2019-06-26T04:25:56.206Z,1015.63
2019-06-26T04:26:56.163Z,1015.71
2019-06-26T04:27:56.152Z,1015.71
2019-06-26T04:28:56.139Z,1015.65
2019-06-26T04:29:56.141Z,1015.71
2019-06-26T04:30:56.123Z,1015.67
2019-06-26T04:31:56.133Z,1015.67
2019-06-26T04:32:56.097Z,1015.71
2019-06-26T04:33:56.087Z,1015.66
2019-06-26T04:34:56.079Z,1015.66
2019-06-26T04:35:56.077Z,1015.67
2019-06-26T04:36:56.063Z,1015.71
2019-06-26T04:37:56.064Z,1015.70
2019-06-26T04:38:56.033Z,1015.66
2019-06-26T04:39:56.020Z,1015.69
2019-06-26T04:40:56.014Z,1015.69
2019-06-26T04:41:56.023Z,1015.73
2019-06-26T04:42:55.986Z,1015.70
2019-06-26T04:43:56.004Z,1015.74
2019-06-26T04:44:55.968Z,1015.75
2019-06-26T04:45:58.508Z,1015.76
2019-06-26T04:46:55.950Z,1015.72
2019-06-26T04:47:55.931Z,1015.71
2019-06-26T04:48:55.927Z,1015.75
2019-06-26T04:49:55.928Z,1015.75
2019-06-26T04:50:55.901Z,1015.77
2019-06-26T04:51:55.893Z,1015.72
2019-06-26T04:52:55.875Z,1015.76
2019-06-26T04:53:55.894Z,1015.69
2019-06-26T04:54:55.852Z,1015.77
2019-06-26T04:55:55.864Z,1015.75
2019-06-26T04:56:55.834Z,1015.79
2019-06-26T04:57:55.818Z,1015.81
2019-06-26T04:58:55.809Z,1015.80
2019-06-26T04:59:55.797Z,1015.81
2019-06-26T05:00:55.784Z,1015.80
2019-06-26T05:01:55.803Z,1015.81
2019-06-26T05:02:55.767Z,1015.83
2019-06-26T05:03:55.761Z,1015.84
2019-06-26T05:04:55.751Z,1015.81
2019-06-26T05:05:55.730Z,1015.85
2019-06-26T05:06:55.809Z,1015.90
2019-06-26T05:07:55.747Z,1015.89
2019-06-26T05:08:55.696Z,1015.86
2019-06-26T05:09:55.693Z,1015.88
2019-06-26T05:10:55.688Z,1015.92
2019-06-26T05:11:55.669Z,1015.90
2019-06-26T05:12:55.653Z,1015.93
2019-06-26T05:13:55.705Z,1015.94
2019-06-26T05:14:55.630Z,1015.93
2019-06-26T05:15:55.618Z,1015.94
2019-06-26T05:16:55.620Z,1015.95
2019-06-26T05:17:55.605Z,1016.02
2019-06-26T05:18:55.587Z,1016.02
2019-06-26T05:19:55.603Z,1016.03
2019-06-26T05:20:55.567Z,1015.99
2019-06-26T05:21:55.559Z,1016.01
2019-06-26T05:22:55.547Z,1015.98
2019-06-26T05:23:55.530Z,1015.99
2019-06-26T05:24:55.517Z,1015.99
2019-06-26T05:25:55.515Z,1015.97
2019-06-26T05:26:55.522Z,1016.01
2019-06-26T05:27:55.503Z,1016.02
2019-06-26T05:28:55.474Z,1016.02
2019-06-26T05:29:55.464Z,1016.04
2019-06-26T05:30:55.453Z,1016.08
2019-06-26T05:31:55.448Z,1016.10
2019-06-26T05:32:55.488Z,1016.08
2019-06-26T05:33:55.431Z,1016.15
2019-06-26T05:34:55.417Z,1016.10
2019-06-26T05:35:55.403Z,1016.11
2019-06-26T05:36:55.393Z,1016.12
2019-06-26T05:37:55.391Z,1016.11
2019-06-26T05:38:55.378Z,1016.16
2019-06-26T05:39:55.380Z,1016.13
2019-06-26T05:40:55.346Z,1016.14
2019-06-26T05:41:55.346Z,1016.16
2019-06-26T05:42:55.331Z,1016.18
2019-06-26T05:43:55.328Z,1016.16
2019-06-26T05:44:55.379Z,1016.24
2019-06-26T05:45:55.310Z,1016.20
2019-06-26T05:46:55.276Z,1016.22
2019-06-26T05:47:55.270Z,1016.26
2019-06-26T05:48:55.262Z,1016.27
2019-06-26T05:49:55.254Z,1016.26
2019-06-26T05:50:55.234Z,1016.29
2019-06-26T05:51:55.258Z,1016.25
2019-06-26T05:52:55.220Z,1016.26
2019-06-26T05:53:55.195Z,1016.29
2019-06-26T05:54:55.191Z,1016.32
2019-06-26T05:55:55.186Z,1016.26
2019-06-26T05:56:55.173Z,1016.30
2019-06-26T05:57:55.191Z,1016.30
2019-06-26T05:58:55.143Z,1016.30
2019-06-26T05:59:55.139Z,1016.28
2019-06-26T06:00:55.127Z,1016.27
2019-06-26T06:01:55.110Z,1016.26
2019-06-26T06:02:55.118Z,1016.28
2019-06-26T06:03:55.115Z,1016.25
2019-06-26T06:04:55.076Z,1016.31
2019-06-26T06:05:55.064Z,1016.33
2019-06-26T06:06:55.052Z,1016.32
2019-06-26T06:07:55.089Z,1016.29
2019-06-26T06:08:55.032Z,1016.29
2019-06-26T06:09:55.020Z,1016.33
2019-06-26T06:10:58.141Z,1016.33
2019-06-26T06:11:55.094Z,1016.32
2019-06-26T06:12:54.984Z,1016.35
2019-06-26T06:13:54.980Z,1016.39
2019-06-26T06:14:55.090Z,1016.37
2019-06-26T06:15:54.958Z,1016.36
2019-06-26T06:16:54.944Z,1016.36
2019-06-26T06:17:54.973Z,1016.37
2019-06-26T06:18:54.931Z,1016.32
2019-06-26T06:19:54.918Z,1016.33
2019-06-26T06:20:54.895Z,1016.37
2019-06-26T06:21:54.886Z,1016.36
2019-06-26T06:22:54.902Z,1016.33
2019-06-26T06:23:54.875Z,1016.36
2019-06-26T06:24:54.857Z,1016.40
2019-06-26T06:25:54.849Z,1016.40
2019-06-26T06:26:54.833Z,1016.40
2019-06-26T06:27:54.826Z,1016.42
2019-06-26T06:28:54.871Z,1016.42
2019-06-26T06:29:54.804Z,1016.43
2019-06-26T06:30:54.883Z,1016.46
2019-06-26T06:31:54.798Z,1016.40
2019-06-26T06:32:54.919Z,1016.50
2019-06-26T06:33:54.780Z,1016.43
2019-06-26T06:34:54.741Z,1016.43
2019-06-26T06:35:54.824Z,1016.47
2019-06-26T06:36:54.785Z,1016.44
2019-06-26T06:37:54.763Z,1016.46
2019-06-26T06:38:55.053Z,1016.48
2019-06-26T06:39:54.831Z,1016.44
2019-06-26T06:40:54.726Z,1016.47
2019-06-26T06:41:54.837Z,1016.50
2019-06-26T06:42:54.655Z,1016.53
2019-06-26T06:43:54.785Z,1016.53
2019-06-26T06:44:54.810Z,1016.55
2019-06-26T06:45:54.616Z,1016.56
2019-06-26T06:47:03.962Z,1016.61
2019-06-26T06:47:55.629Z,1016.56
2019-06-26T06:48:54.612Z,1016.61
2019-06-26T06:49:54.576Z,1016.60
2019-06-26T06:50:54.566Z,1016.66
2019-06-26T06:51:54.618Z,1016.62
2019-06-26T06:52:54.639Z,1016.58
2019-06-26T06:53:54.539Z,1016.61
2019-06-26T06:54:54.538Z,1016.69
2019-06-26T06:55:54.652Z,1016.66
2019-06-26T06:56:54.540Z,1016.70
2019-06-26T06:57:54.499Z,1016.67
2019-06-26T06:58:54.555Z,1016.68
2019-06-26T06:59:54.505Z,1016.70
2019-06-26T07:00:54.506Z,1016.66
2019-06-26T07:01:54.453Z,1016.66
2019-06-26T07:02:54.447Z,1016.60
2019-06-26T07:03:54.549Z,1016.66
2019-06-26T07:04:54.494Z,1016.72
2019-06-26T07:05:54.453Z,1016.75
2019-06-26T07:06:54.550Z,1016.74
2019-06-26T07:07:54.431Z,1016.74
2019-06-26T07:08:54.391Z,1016.78
2019-06-26T07:09:54.409Z,1016.81
2019-06-26T07:10:54.340Z,1016.81
2019-06-26T07:11:54.335Z,1016.80
2019-06-26T07:12:54.362Z,1016.84
2019-06-26T07:13:54.312Z,1016.83
2019-06-26T07:14:54.303Z,1016.81
2019-06-26T07:15:54.285Z,1016.85
2019-06-26T07:16:54.313Z,1016.81
2019-06-26T07:17:54.285Z,1016.77
2019-06-26T07:18:54.251Z,1016.82
2019-06-26T07:19:54.249Z,1016.85
2019-06-26T07:20:54.248Z,1016.87
2019-06-26T07:21:54.222Z,1016.83
2019-06-26T07:22:54.584Z,1016.87
2019-06-26T07:23:54.195Z,1016.88
2019-06-26T07:24:54.355Z,1016.88
2019-06-26T07:25:54.183Z,1016.88
2019-06-26T07:26:54.322Z,1016.88
2019-06-26T07:27:54.155Z,1016.84
2019-06-26T07:28:55.015Z,1016.88
2019-06-26T07:29:54.501Z,1016.86
2019-06-26T07:30:54.119Z,1016.87
2019-06-26T07:31:54.112Z,1016.93
2019-06-26T07:32:54.094Z,1016.93
2019-06-26T07:33:55.641Z,1016.92
2019-06-26T07:34:54.189Z,1016.96
2019-06-26T07:35:54.066Z,1016.97
2019-06-26T07:36:54.083Z,1017.00
2019-06-26T07:37:54.041Z,1017.01
2019-06-26T07:38:54.058Z,1016.96
2019-06-26T07:39:57.779Z,1017.00
2019-06-26T07:40:55.045Z,1017.07
2019-06-26T07:41:53.995Z,1017.05
2019-06-26T07:42:53.990Z,1017.04
2019-06-26T07:43:54.008Z,1017.08
2019-06-26T07:44:53.974Z,1017.06
2019-06-26T07:45:53.966Z,1017.07
2019-06-26T07:46:53.944Z,1017.08
2019-06-26T07:47:53.980Z,1017.08
2019-06-26T07:48:57.380Z,1017.07
2019-06-26T07:49:54.060Z,1017.11
2019-06-26T07:50:53.917Z,1017.16
2019-06-26T07:51:53.897Z,1017.15
2019-06-26T07:52:54.100Z,1017.14
2019-06-26T07:53:53.972Z,1017.09
2019-06-26T07:54:53.859Z,1017.07
2019-06-26T07:55:53.866Z,1017.10
2019-06-26T07:56:53.849Z,1017.12
2019-06-26T07:57:53.836Z,1017.15
2019-06-26T07:58:53.810Z,1017.14
2019-06-26T07:59:53.811Z,1017.13
2019-06-26T08:00:54.490Z,1017.18
2019-06-26T08:01:53.825Z,1017.18
2019-06-26T08:02:56.680Z,1017.13
2019-06-26T08:03:53.752Z,1017.16
2019-06-26T08:04:53.780Z,1017.18
2019-06-26T08:05:53.731Z,1017.20
2019-06-26T08:06:53.730Z,1017.14
2019-06-26T08:07:53.733Z,1017.14
2019-06-26T08:08:53.751Z,1017.14
2019-06-26T08:09:53.730Z,1017.20
2019-06-26T08:10:53.687Z,1017.20
2019-06-26T08:11:53.721Z,1017.22
2019-06-26T08:12:53.662Z,1017.17
2019-06-26T08:13:53.641Z,1017.19
2019-06-26T08:14:53.697Z,1017.18
2019-06-26T08:15:53.698Z,1017.16
2019-06-26T08:16:53.615Z,1017.12
2019-06-26T08:18:00.637Z,1017.12
2019-06-26T08:18:54.635Z,1017.13
2019-06-26T08:19:53.610Z,1017.14
2019-06-26T08:21:10.901Z,1017.11
2019-06-26T08:21:54.550Z,1017.09
2019-06-26T08:22:53.599Z,1017.10
2019-06-26T08:23:53.539Z,1017.11
2019-06-26T08:24:53.522Z,1017.10
2019-06-26T08:25:53.523Z,1017.10
2019-06-26T08:26:53.496Z,1017.12
2019-06-26T08:27:53.495Z,1017.08
2019-06-26T08:28:53.485Z,1017.11
2019-06-26T08:29:53.462Z,1017.12
2019-06-26T08:30:53.463Z,1017.14
2019-06-26T08:31:53.445Z,1017.16
2019-06-26T08:32:53.569Z,1017.16
2019-06-26T08:33:53.528Z,1017.14
2019-06-26T08:34:53.436Z,1017.14
2019-06-26T08:35:53.401Z,1017.18
2019-06-26T08:36:53.403Z,1017.18
2019-06-26T08:38:08.917Z,1017.15
2019-06-26T08:38:54.365Z,1017.15
2019-06-26T08:39:53.562Z,1017.14
2019-06-26T08:40:53.346Z,1017.13
2019-06-26T08:41:53.330Z,1017.11
2019-06-26T08:42:53.318Z,1017.12
2019-06-26T08:43:53.306Z,1017.06
2019-06-26T08:44:53.308Z,1017.11
2019-06-26T08:45:53.520Z,1017.09
2019-06-26T08:46:53.294Z,1017.12
2019-06-26T08:47:53.268Z,1017.10
2019-06-26T08:48:53.251Z,1017.11
2019-06-26T08:49:53.373Z,1017.13
2019-06-26T08:50:53.336Z,1017.19
2019-06-26T08:51:53.265Z,1017.12
2019-06-26T08:52:53.215Z,1017.15
2019-06-26T08:53:53.200Z,1017.13
2019-06-26T08:54:53.204Z,1017.12
2019-06-26T08:55:53.187Z,1017.14
2019-06-26T08:56:53.206Z,1017.12
2019-06-26T08:57:53.184Z,1017.14
2019-06-26T08:58:53.168Z,1017.17
2019-06-26T08:59:53.132Z,1017.20
2019-06-26T09:00:53.163Z,1017.22
2019-06-26T09:01:53.118Z,1017.21
2019-06-26T09:02:53.103Z,1017.21
2019-06-26T09:03:53.097Z,1017.26
2019-06-26T09:04:53.100Z,1017.21
2019-06-26T09:05:53.099Z,1017.26
2019-06-26T09:06:53.092Z,1017.23
2019-06-26T09:07:53.119Z,1017.24
2019-06-26T09:08:53.037Z,1017.25
2019-06-26T09:09:53.070Z,1017.24
2019-06-26T09:10:53.012Z,1017.25
2019-06-26T09:11:53.017Z,1017.23
2019-06-26T09:12:53.016Z,1017.22
2019-06-26T09:13:53.041Z,1017.21
2019-06-26T09:14:52.992Z,1017.22
2019-06-26T09:15:52.956Z,1017.25
2019-06-26T09:16:52.986Z,1017.25
2019-06-26T09:17:52.937Z,1017.24
2019-06-26T09:18:52.921Z,1017.21
2019-06-26T09:19:52.923Z,1017.23
2019-06-26T09:20:52.903Z,1017.26
2019-06-26T09:21:52.916Z,1017.24
2019-06-26T09:22:52.902Z,1017.20
2019-06-26T09:23:52.870Z,1017.23
2019-06-26T09:24:52.862Z,1017.19
2019-06-26T09:25:52.850Z,1017.20
2019-06-26T09:26:52.936Z,1017.26
2019-06-26T09:27:52.889Z,1017.25
2019-06-26T09:28:52.827Z,1017.24
2019-06-26T09:29:52.803Z,1017.29
2019-06-26T09:30:52.862Z,1017.22
2019-06-26T09:31:52.780Z,1017.26
2019-06-26T09:32:52.765Z,1017.22
2019-06-26T09:33:52.759Z,1017.32
2019-06-26T09:34:52.746Z,1017.25
2019-06-26T09:35:52.763Z,1017.22
2019-06-26T09:36:52.746Z,1017.25
2019-06-26T09:37:52.713Z,1017.22
2019-06-26T09:38:52.699Z,1017.20
2019-06-26T09:39:52.740Z,1017.22
2019-06-26T09:40:52.684Z,1017.20
2019-06-26T09:41:53.148Z,1017.24
2019-06-26T09:42:52.661Z,1017.22
2019-06-26T09:43:52.687Z,1017.21
2019-06-26T09:44:52.635Z,1017.20
2019-06-26T09:45:52.635Z,1017.19
2019-06-26T09:46:52.623Z,1017.21
2019-06-26T09:47:52.609Z,1017.19
2019-06-26T09:48:53.668Z,1017.20
2019-06-26T09:49:52.583Z,1017.17
2019-06-26T09:50:52.572Z,1017.18
2019-06-26T09:51:52.594Z,1017.14
2019-06-26T09:52:52.612Z,1017.15
2019-06-26T09:53:52.547Z,1017.14
2019-06-26T09:54:52.560Z,1017.17
2019-06-26T09:55:52.527Z,1017.08
2019-06-26T09:56:52.505Z,1017.07
2019-06-26T09:57:52.521Z,1017.17
2019-06-26T09:58:52.503Z,1017.12
2019-06-26T09:59:52.473Z,1017.11
2019-06-26T10:00:52.470Z,1017.11
2019-06-26T10:01:52.463Z,1017.11
2019-06-26T10:02:52.500Z,1017.15
2019-06-26T10:03:52.443Z,1017.04
2019-06-26T10:04:52.415Z,1017.07
2019-06-26T10:05:52.408Z,1017.12
2019-06-26T10:06:52.388Z,1017.08
2019-06-26T10:07:52.391Z,1017.11
2019-06-26T10:08:54.438Z,1017.13
2019-06-26T10:09:52.361Z,1017.10
2019-06-26T10:10:52.359Z,1017.09
2019-06-26T10:11:52.367Z,1017.11
2019-06-26T10:12:52.404Z,1017.09
2019-06-26T10:13:52.319Z,1017.15
2019-06-26T10:14:52.301Z,1017.10
2019-06-26T10:15:52.322Z,1017.10
2019-06-26T10:16:52.433Z,1017.06
2019-06-26T10:17:52.271Z,1017.08
2019-06-26T10:19:08.644Z,1017.10
2019-06-26T10:19:54.250Z,1017.08
2019-06-26T10:20:52.256Z,1017.16
2019-06-26T10:21:52.231Z,1017.15
2019-06-26T10:22:52.221Z,1017.12
2019-06-26T10:23:52.225Z,1017.11
2019-06-26T10:24:52.214Z,1017.18
2019-06-26T10:25:52.264Z,1017.16
2019-06-26T10:26:52.212Z,1017.20
2019-06-26T10:27:52.175Z,1017.15
2019-06-26T10:28:52.475Z,1017.19
2019-06-26T10:29:52.210Z,1017.23
2019-06-26T10:30:52.128Z,1017.25
2019-06-26T10:31:52.164Z,1017.20
2019-06-26T10:32:52.099Z,1017.20
2019-06-26T10:33:52.099Z,1017.23
2019-06-26T10:34:52.248Z,1017.19
2019-06-26T10:35:52.071Z,1017.20
2019-06-26T10:36:52.069Z,1017.23
2019-06-26T10:37:52.050Z,1017.21
2019-06-26T10:38:52.055Z,1017.27
2019-06-26T10:39:52.025Z,1017.30
2019-06-26T10:40:52.017Z,1017.26
2019-06-26T10:41:54.929Z,1017.27
2019-06-26T10:42:52.038Z,1017.26
2019-06-26T10:43:52.161Z,1017.26
2019-06-26T10:44:51.972Z,1017.27
2019-06-26T10:45:51.975Z,1017.24
2019-06-26T10:46:51.985Z,1017.26
2019-06-26T10:47:52.037Z,1017.25
2019-06-26T10:48:52.100Z,1017.23
2019-06-26T10:49:51.912Z,1017.24
2019-06-26T10:50:58.134Z,1017.22
2019-06-26T10:51:52.899Z,1017.23
2019-06-26T10:52:51.881Z,1017.22
2019-06-26T10:53:51.937Z,1017.21
2019-06-26T10:54:51.884Z,1017.23
2019-06-26T10:55:51.845Z,1017.20
2019-06-26T10:56:51.835Z,1017.21
2019-06-26T10:57:51.873Z,1017.18
2019-06-26T10:58:51.864Z,1017.19
2019-06-26T10:59:55.466Z,1017.21
2019-06-26T11:00:51.817Z,1017.22
2019-06-26T11:01:51.851Z,1017.27
2019-06-26T11:02:51.768Z,1017.21
2019-06-26T11:03:51.814Z,1017.24
2019-06-26T11:04:51.763Z,1017.25
2019-06-26T11:05:51.767Z,1017.20
2019-06-26T11:06:51.739Z,1017.21
2019-06-26T11:07:51.714Z,1017.25
2019-06-26T11:08:51.716Z,1017.27
2019-06-26T11:09:51.721Z,1017.25
2019-06-26T11:10:51.682Z,1017.21
2019-06-26T11:11:51.755Z,1017.20
2019-06-26T11:12:51.730Z,1017.32
2019-06-26T11:13:51.650Z,1017.27
2019-06-26T11:14:51.677Z,1017.31
2019-06-26T11:15:51.626Z,1017.33
2019-06-26T11:16:51.730Z,1017.24
2019-06-26T11:17:51.644Z,1017.32
2019-06-26T11:18:51.965Z,1017.27
2019-06-26T11:19:55.157Z,1017.36
2019-06-26T11:20:51.577Z,1017.30
2019-06-26T11:21:51.574Z,1017.29
2019-06-26T11:22:51.572Z,1017.27
2019-06-26T11:23:51.541Z,1017.19
2019-06-26T11:24:51.539Z,1017.29
2019-06-26T11:25:51.531Z,1017.28
2019-06-26T11:26:51.520Z,1017.27
2019-06-26T11:27:54.532Z,1017.25
2019-06-26T11:28:51.486Z,1017.26
2019-06-26T11:29:51.517Z,1017.25
2019-06-26T11:30:51.497Z,1017.27
2019-06-26T11:31:51.457Z,1017.27
2019-06-26T11:32:51.602Z,1017.32
2019-06-26T11:33:51.611Z,1017.29
2019-06-26T11:34:52.102Z,1017.30
2019-06-26T11:35:51.516Z,1017.29
2019-06-26T11:37:03.200Z,1017.26
2019-06-26T11:37:52.613Z,1017.23
2019-06-26T11:38:51.407Z,1017.25
2019-06-26T11:39:51.391Z,1017.24
2019-06-26T11:40:51.414Z,1017.24
2019-06-26T11:41:51.397Z,1017.21
2019-06-26T11:42:51.368Z,1017.22
2019-06-26T11:43:51.323Z,1017.24
2019-06-26T11:44:51.337Z,1017.22
2019-06-26T11:45:51.342Z,1017.23
2019-06-26T11:46:51.285Z,1017.19
2019-06-26T11:47:51.392Z,1017.22
2019-06-26T11:48:51.366Z,1017.20
2019-06-26T11:49:59.877Z,1017.19
2019-06-26T11:50:52.253Z,1017.23
2019-06-26T11:51:51.322Z,1017.21
2019-06-26T11:52:51.390Z,1017.22
2019-06-26T11:53:51.267Z,1017.19
2019-06-26T11:55:01.834Z,1017.23
2019-06-26T11:55:52.218Z,1017.22
2019-06-26T11:56:51.298Z,1017.23
2019-06-26T11:57:51.261Z,1017.23
2019-06-26T11:58:51.161Z,1017.16
2019-06-26T11:59:51.178Z,1017.24
2019-06-26T12:00:51.203Z,1017.18
2019-06-26T12:01:51.122Z,1017.19
2019-06-26T12:02:51.196Z,1017.23
2019-06-26T12:03:51.185Z,1017.21
2019-06-26T12:04:51.098Z,1017.22
2019-06-26T12:05:51.090Z,1017.16